Terminal Aerodrome Forecast
Issued by NWS Detroit/Pontiac, MI

Home | Current Version | Previous Version | Text Only | Print | Product List | Glossary On
Versions: 1 2 3 4 5 6 7 8 9 10 11 12
000
FTUS43 KDTX 012324
TAFFNT
TAF
KFNT 012324Z 0200/0224 27014G20KT P6SM SCT080
     FM020100 24008KT P6SM SCT250
     FM021400 22011G18KT P6SM SCT080 BKN150
     FM021700 24016G26KT P6SM SCT045 BKN200=

USA.gov is the U.S. government's official web portal to all federal, state and local government web resources and services.